»·PEaware :: AWE35 KPHX-KLAX

AWE35 :: KPHX-KLAX

FLIGHT INFORMATION

Flight Status: Arrived
Operator:
US Airways
More flights by this operator :: More flights under this callsign
Pilot: Robby H. (353)
Aircraft: BOEING 767-200
(B762)
More flights by this aircraft type
Origin: KPHX Phoenix Sky Harbor Intl
United States
Destination: KLAX Los Angeles Intl
United States
More flights between these airports :: More routes between these airports
Route: BXK2 BXK J4 TNP SEAVU2
File this flight plan on PilotEdge
Remarks: / V /
Altitude:
(Current/Filed)
28,000ft
Speed:
(Current/Filed)
532kts
Departed: 25-Dec-11 08:23 PM
Arrived: 25-Dec-11 09:12 PM
Distance/Time
Traveled:
322nm/0:49
Distance/Time
To Go:
Arrived

Flight Plot

Page will automatically refresh every two minutes.


Map Options




Map Legend


Flown Route
Filed Route
Departure Airport
Arrival Airport
Navaid (VOR, NDB)
Fix

Horizontal Profiles

Position Reports

Time Latitude Longitude Heading Altitude Ground
Speed
25-Dec-11 20:17 33.436434 -111.996167 241 1147ft 0kts
25-Dec-11 20:18 33.436434 -111.996167 241 1147ft 0kts
25-Dec-11 20:19 33.436617 -111.995758 241 1147ft 2kts
25-Dec-11 20:20 33.437298 -111.995578 1 1147ft 17kts
25-Dec-11 20:21 33.440801 -111.993337 267 1147ft 35kts
25-Dec-11 20:22 33.441701 -112.041064 274 2227ft 185kts
25-Dec-11 20:23 33.443214 -112.110097 272 4269ft 256kts
25-Dec-11 20:24 33.444673 -112.197027 272 6044ft 270kts
25-Dec-11 20:25 33.446103 -112.287823 272 7829ft 280kts
25-Dec-11 20:26 33.447558 -112.384050 272 9662ft 290kts
25-Dec-11 20:27 33.444922 -112.481970 282 11439ft 302kts
25-Dec-11 20:28 33.471346 -112.566881 290 12495ft 355kts
25-Dec-11 20:29 33.513679 -112.711526 288 13710ft 415kts
25-Dec-11 20:30 33.548805 -112.841629 287 14695ft 421kts
25-Dec-11 20:31 33.578613 -112.953874 287 15534ft 427kts
25-Dec-11 20:32 33.615768 -113.094633 287 16561ft 447kts
25-Dec-11 20:33 33.652544 -113.234533 289 17551ft 444kts
25-Dec-11 20:34 33.688968 -113.378967 286 18530ft 451kts
25-Dec-11 20:35 33.727946 -113.525907 292 19609ft 470kts
25-Dec-11 20:36 33.777455 -113.665869 291 20611ft 439kts
25-Dec-11 20:37 33.823136 -113.805736 292 21628ft 450kts
25-Dec-11 20:38 33.867749 -113.944315 293 22613ft 451kts
25-Dec-11 20:39 33.913812 -114.087820 293 23623ft 462kts
25-Dec-11 20:40 33.962634 -114.231031 293 24589ft 469kts
25-Dec-11 20:41 33.976029 -114.381299 274 25612ft 478kts
25-Dec-11 20:42 33.986938 -114.544443 279 26630ft 478kts
25-Dec-11 20:43 34.003202 -114.700210 279 27602ft 477kts
25-Dec-11 20:44 34.019065 -114.849213 279 28333ft 479kts
25-Dec-11 20:45 34.036168 -115.012418 279 28361ft 496kts
25-Dec-11 20:46 34.053014 -115.175927 279 28368ft 499kts
25-Dec-11 20:47 34.069835 -115.341510 279 28375ft 507kts
25-Dec-11 20:48 34.090110 -115.499545 275 28322ft 509kts
25-Dec-11 20:49 34.073607 -115.650533 261 27514ft 513kts
25-Dec-11 20:50 34.053661 -115.815525 263 26066ft 492kts
25-Dec-11 20:51 34.042295 -115.971832 267 24604ft 485kts
25-Dec-11 20:52 34.030853 -116.136572 267 23068ft 476kts
25-Dec-11 20:53 34.020609 -116.278990 267 21719ft 469kts
25-Dec-11 20:54 34.010023 -116.422810 266 20325ft 451kts
25-Dec-11 20:55 33.998338 -116.573771 266 18822ft 452kts
25-Dec-11 20:56 33.986082 -116.726270 265 17293ft 454kts
25-Dec-11 20:57 33.974000 -116.874821 264 15806ft 447kts
25-Dec-11 20:58 33.962043 -117.019162 264 14318ft 413kts
25-Dec-11 20:59 33.951183 -117.148714 262 12900ft 413kts
25-Dec-11 21:00 33.939847 -117.281435 262 11427ft 412kts
25-Dec-11 21:01 33.941070 -117.414973 289 9905ft 403kts
25-Dec-11 21:02 33.987292 -117.535934 295 8410ft 386kts
25-Dec-11 21:03 34.023724 -117.657953 272 6852ft 381kts
25-Dec-11 21:04 34.012821 -117.784455 262 5377ft 376kts
25-Dec-11 21:05 33.999819 -117.908494 263 4292ft 368kts
25-Dec-11 21:06 33.988247 -118.024315 263 4287ft 367kts
25-Dec-11 21:07 33.976068 -118.145460 263 3587ft 364kts
25-Dec-11 21:08 33.963781 -118.265120 263 3171ft 323kts
25-Dec-11 21:09 33.953095 -118.350207 264 1088ft 230kts
25-Dec-11 21:10 33.948533 -118.417745 262 158ft 164kts
25-Dec-11 21:11 33.945751 -118.438261 124 138ft 1kts
25-Dec-11 21:12 33.945629 -118.435417 87 138ft 14kts
25-Dec-11 21:13 33.945001 -118.433096 135 138ft 0kts
25-Dec-11 21:14 33.944999 -118.433095 135 138ft 0kts
25-Dec-11 21:15 33.944998 -118.433093 135 138ft 0kts
25-Dec-11 21:16 33.944996 -118.433091 135 138ft 0kts
25-Dec-11 21:17 33.944995 -118.433089 135 138ft 0kts

Navigation Log

Ident Type
Flight plan parsing failed, navigation log unavailable